sensor_id;sensor_type;location;lat;lon;timestamp;pressure;altitude;pressure_sealevel;temperature;humidity
7906;BME280;13291;40.472;-3.878;2022-09-02T00:00:54;52825.94;;;-139.96;28.51
7906;BME280;13291;40.472;-3.878;2022-09-02T00:03:25;52847.97;;;-139.96;28.89
7906;BME280;13291;40.472;-3.878;2022-09-02T00:05:52;52833.97;;;-139.96;28.95
7906;BME280;13291;40.472;-3.878;2022-09-02T00:08:19;52883.97;;;-139.96;28.77
7906;BME280;13291;40.472;-3.878;2022-09-02T00:10:46;52873.97;;;-139.96;29.13
7906;BME280;13291;40.472;-3.878;2022-09-02T00:13:15;52873.97;;;-139.96;29.33
7906;BME280;13291;40.472;-3.878;2022-09-02T00:15:43;52827.94;;;-139.96;29.12
7906;BME280;13291;40.472;-3.878;2022-09-02T00:18:11;52853.97;;;-139.96;29.16
7906;BME280;13291;40.472;-3.878;2022-09-02T00:20:40;52839.97;;;-139.96;29.02
7906;BME280;13291;40.472;-3.878;2022-09-02T00:23:08;52849.97;;;-139.96;28.88
7906;BME280;13291;40.472;-3.878;2022-09-02T00:25:35;52853.97;;;-139.96;29.07
7906;BME280;13291;40.472;-3.878;2022-09-02T00:28:02;52867.97;;;-139.96;28.92
7906;BME280;13291;40.472;-3.878;2022-09-02T00:30:29;52843.97;;;-139.96;29.13
7906;BME280;13291;40.472;-3.878;2022-09-02T00:32:57;52861.97;;;-139.96;29.18
7906;BME280;13291;40.472;-3.878;2022-09-02T00:35:26;52889.97;;;-139.96;28.83
7906;BME280;13291;40.472;-3.878;2022-09-02T00:37:53;52859.97;;;-139.96;28.65
7906;BME280;13291;40.472;-3.878;2022-09-02T00:40:20;52849.97;;;-139.96;29.11
7906;BME280;13291;40.472;-3.878;2022-09-02T00:42:47;52861.97;;;-139.96;29.28
7906;BME280;13291;40.472;-3.878;2022-09-02T00:45:14;52873.97;;;-139.96;29.08
7906;BME280;13291;40.472;-3.878;2022-09-02T00:47:42;52881.97;;;-139.96;29.03
7906;BME280;13291;40.472;-3.878;2022-09-02T00:50:13;52861.97;;;-139.96;29.16
7906;BME280;13291;40.472;-3.878;2022-09-02T00:52:47;52857.97;;;-139.96;28.94
7906;BME280;13291;40.472;-3.878;2022-09-02T00:55:17;52841.97;;;-139.96;29.18
7906;BME280;13291;40.472;-3.878;2022-09-02T00:57:46;52849.97;;;-139.96;29.01
7906;BME280;13291;40.472;-3.878;2022-09-02T01:00:17;52817.94;;;-139.96;28.99
7906;BME280;13291;40.472;-3.878;2022-09-02T01:02:48;52871.97;;;-139.96;28.76
7906;BME280;13291;40.472;-3.878;2022-09-02T01:05:18;52841.97;;;-139.96;29.15
7906;BME280;13291;40.472;-3.878;2022-09-02T01:07:48;52867.97;;;-139.96;29.19
7906;BME280;13291;40.472;-3.878;2022-09-02T01:10:18;52853.97;;;-139.96;28.67
7906;BME280;13291;40.472;-3.878;2022-09-02T01:12:46;52843.97;;;-139.96;28.92
7906;BME280;13291;40.472;-3.878;2022-09-02T01:15:14;52879.97;;;-139.96;28.74
7906;BME280;13291;40.472;-3.878;2022-09-02T01:17:44;52875.97;;;-139.96;29.38
7906;BME280;13291;40.472;-3.878;2022-09-02T01:20:13;52837.97;;;-139.96;29.35
7906;BME280;13291;40.472;-3.878;2022-09-02T01:22:42;52861.97;;;-139.96;29.07
7906;BME280;13291;40.472;-3.878;2022-09-02T01:25:13;52865.97;;;-139.96;28.88
7906;BME280;13291;40.472;-3.878;2022-09-02T01:27:41;52847.97;;;-139.96;29.00
7906;BME280;13291;40.472;-3.878;2022-09-02T01:30:11;52889.97;;;-139.96;28.94
7906;BME280;13291;40.472;-3.878;2022-09-02T01:32:38;52843.97;;;-139.96;28.87
7906;BME280;13291;40.472;-3.878;2022-09-02T01:35:06;52857.97;;;-139.96;28.55
7906;BME280;13291;40.472;-3.878;2022-09-02T01:37:33;52853.97;;;-139.96;28.92
7906;BME280;13291;40.472;-3.878;2022-09-02T01:40:05;52843.97;;;-139.96;28.46
7906;BME280;13291;40.472;-3.878;2022-09-02T01:42:32;52857.97;;;-139.96;28.67
7906;BME280;13291;40.472;-3.878;2022-09-02T01:44:59;52857.97;;;-139.96;28.65
7906;BME280;13291;40.472;-3.878;2022-09-02T01:47:26;52893.97;;;-139.96;28.79
7906;BME280;13291;40.472;-3.878;2022-09-02T01:49:54;52835.97;;;-139.96;28.49
7906;BME280;13291;40.472;-3.878;2022-09-02T01:52:23;52847.97;;;-139.96;28.79
7906;BME280;13291;40.472;-3.878;2022-09-02T01:54:51;52853.97;;;-139.96;28.98
7906;BME280;13291;40.472;-3.878;2022-09-02T01:57:19;52855.97;;;-139.96;28.82
7906;BME280;13291;40.472;-3.878;2022-09-02T01:59:48;52845.97;;;-139.96;28.82
7906;BME280;13291;40.472;-3.878;2022-09-02T02:02:16;52861.97;;;-139.96;28.59
7906;BME280;13291;40.472;-3.878;2022-09-02T02:04:44;52897.97;;;-139.96;28.87
7906;BME280;13291;40.472;-3.878;2022-09-02T02:07:12;52857.97;;;-139.96;28.58
7906;BME280;13291;40.472;-3.878;2022-09-02T02:09:39;52879.97;;;-139.96;29.12
7906;BME280;13291;40.472;-3.878;2022-09-02T02:12:07;52903.97;;;-139.96;29.04
7906;BME280;13291;40.472;-3.878;2022-09-02T02:14:36;52901.97;;;-139.96;29.05
7906;BME280;13291;40.472;-3.878;2022-09-02T02:17:03;52893.97;;;-139.96;29.04
7906;BME280;13291;40.472;-3.878;2022-09-02T02:19:30;52903.97;;;-139.96;29.02
7906;BME280;13291;40.472;-3.878;2022-09-02T02:21:57;52875.97;;;-139.96;29.12
7906;BME280;13291;40.472;-3.878;2022-09-02T02:24:24;52857.97;;;-139.96;29.04
7906;BME280;13291;40.472;-3.878;2022-09-02T02:26:51;52867.97;;;-139.96;28.87
7906;BME280;13291;40.472;-3.878;2022-09-02T02:29:19;52865.97;;;-139.96;28.95
7906;BME280;13291;40.472;-3.878;2022-09-02T02:31:48;52853.97;;;-139.96;29.07
7906;BME280;13291;40.472;-3.878;2022-09-02T02:34:15;52885.97;;;-139.96;29.64
7906;BME280;13291;40.472;-3.878;2022-09-02T02:36:42;52875.97;;;-139.96;28.92
7906;BME280;13291;40.472;-3.878;2022-09-02T02:39:10;52845.97;;;-139.96;28.87
7906;BME280;13291;40.472;-3.878;2022-09-02T02:41:38;52841.97;;;-139.96;29.15
7906;BME280;13291;40.472;-3.878;2022-09-02T02:44:06;52877.97;;;-139.96;29.05
7906;BME280;13291;40.472;-3.878;2022-09-02T02:46:33;52905.97;;;-139.96;28.83
7906;BME280;13291;40.472;-3.878;2022-09-02T02:49:02;52861.97;;;-139.96;28.78
7906;BME280;13291;40.472;-3.878;2022-09-02T02:51:29;52855.97;;;-139.96;29.11
7906;BME280;13291;40.472;-3.878;2022-09-02T02:53:58;52859.97;;;-139.96;28.85
7906;BME280;13291;40.472;-3.878;2022-09-02T02:56:25;52861.97;;;-139.96;28.79
7906;BME280;13291;40.472;-3.878;2022-09-02T02:58:53;52861.97;;;-139.96;28.46
7906;BME280;13291;40.472;-3.878;2022-09-02T03:01:20;52861.97;;;-139.96;28.72
7906;BME280;13291;40.472;-3.878;2022-09-02T03:03:46;52861.97;;;-139.96;28.52
7906;BME280;13291;40.472;-3.878;2022-09-02T03:06:15;52877.97;;;-139.96;28.53
7906;BME280;13291;40.472;-3.878;2022-09-02T03:08:41;52857.97;;;-139.96;28.35
7906;BME280;13291;40.472;-3.878;2022-09-02T03:11:08;52829.94;;;-139.96;28.95
7906;BME280;13291;40.472;-3.878;2022-09-02T03:13:35;52845.97;;;-139.96;28.88
7906;BME280;13291;40.472;-3.878;2022-09-02T03:16:03;52873.97;;;-139.96;28.94
7906;BME280;13291;40.472;-3.878;2022-09-02T03:18:30;52857.97;;;-139.96;28.99
7906;BME280;13291;40.472;-3.878;2022-09-02T03:20:57;52869.97;;;-139.96;28.98
7906;BME280;13291;40.472;-3.878;2022-09-02T03:23:26;52881.97;;;-139.96;28.78
7906;BME280;13291;40.472;-3.878;2022-09-02T03:25:53;52847.97;;;-139.96;28.96
7906;BME280;13291;40.472;-3.878;2022-09-02T03:28:20;52889.97;;;-139.96;29.02
7906;BME280;13291;40.472;-3.878;2022-09-02T03:30:47;52865.97;;;-139.96;29.33
7906;BME280;13291;40.472;-3.878;2022-09-02T03:33:14;52859.97;;;-139.96;29.45
7906;BME280;13291;40.472;-3.878;2022-09-02T03:35:42;52875.97;;;-139.96;30.99
7906;BME280;13291;40.472;-3.878;2022-09-02T03:38:10;52909.97;;;-139.96;29.38
7906;BME280;13291;40.472;-3.878;2022-09-02T03:40:39;52861.97;;;-139.96;29.28
7906;BME280;13291;40.472;-3.878;2022-09-02T03:43:06;52877.97;;;-139.96;29.59
7906;BME280;13291;40.472;-3.878;2022-09-02T03:45:33;52869.97;;;-139.96;29.87
7906;BME280;13291;40.472;-3.878;2022-09-02T03:48:00;52867.97;;;-139.96;29.70
7906;BME280;13291;40.472;-3.878;2022-09-02T03:50:30;52895.97;;;-139.96;29.95
7906;BME280;13291;40.472;-3.878;2022-09-02T03:52:58;52867.97;;;-139.96;29.91
7906;BME280;13291;40.472;-3.878;2022-09-02T03:55:26;52899.97;;;-139.96;30.39
7906;BME280;13291;40.472;-3.878;2022-09-02T03:57:54;52893.97;;;-139.96;30.09
7906;BME280;13291;40.472;-3.878;2022-09-02T04:00:22;52915.97;;;-139.96;30.52
7906;BME280;13291;40.472;-3.878;2022-09-02T04:02:50;52893.97;;;-139.96;30.99
7906;BME280;13291;40.472;-3.878;2022-09-02T04:05:19;52917.97;;;-139.96;30.31
7906;BME280;13291;40.472;-3.878;2022-09-02T04:07:46;52897.97;;;-139.96;30.89
7906;BME280;13291;40.472;-3.878;2022-09-02T04:10:15;52907.97;;;-139.96;31.20
7906;BME280;13291;40.472;-3.878;2022-09-02T04:12:42;52897.97;;;-139.96;31.24
7906;BME280;13291;40.472;-3.878;2022-09-02T04:15:11;52877.97;;;-139.96;30.99
7906;BME280;13291;40.472;-3.878;2022-09-02T04:17:40;52893.97;;;-139.96;31.18
7906;BME280;13291;40.472;-3.878;2022-09-02T04:20:10;52903.97;;;-139.96;30.94
7906;BME280;13291;40.472;-3.878;2022-09-02T04:22:38;52901.97;;;-139.96;31.16
7906;BME280;13291;40.472;-3.878;2022-09-02T04:25:06;52885.97;;;-139.96;31.42
7906;BME280;13291;40.472;-3.878;2022-09-02T04:27:34;52907.97;;;-139.96;31.33
7906;BME280;13291;40.472;-3.878;2022-09-02T04:30:01;52893.97;;;-139.96;31.33
7906;BME280;13291;40.472;-3.878;2022-09-02T04:32:30;52907.97;;;-139.96;31.92
7906;BME280;13291;40.472;-3.878;2022-09-02T04:34:57;52911.97;;;-139.96;32.05
7906;BME280;13291;40.472;-3.878;2022-09-02T04:37:24;52903.97;;;-139.96;32.42
7906;BME280;13291;40.472;-3.878;2022-09-02T04:39:52;52873.97;;;-139.96;32.52
7906;BME280;13291;40.472;-3.878;2022-09-02T04:42:19;52905.97;;;-139.96;32.65
7906;BME280;13291;40.472;-3.878;2022-09-02T04:44:46;52917.97;;;-139.96;32.51
7906;BME280;13291;40.472;-3.878;2022-09-02T04:47:13;52915.97;;;-139.96;32.88
7906;BME280;13291;40.472;-3.878;2022-09-02T04:49:41;52931.97;;;-139.96;33.04
7906;BME280;13291;40.472;-3.878;2022-09-02T04:52:08;52935.97;;;-139.96;33.17
7906;BME280;13291;40.472;-3.878;2022-09-02T04:54:36;52893.97;;;-139.96;33.27
7906;BME280;13291;40.472;-3.878;2022-09-02T04:57:03;52903.97;;;-139.96;33.40
7906;BME280;13291;40.472;-3.878;2022-09-02T04:59:30;52907.97;;;-139.96;33.30
7906;BME280;13291;40.472;-3.878;2022-09-02T05:02:00;52905.97;;;-139.96;33.57
7906;BME280;13291;40.472;-3.878;2022-09-02T05:04:27;52897.97;;;-139.96;34.02
7906;BME280;13291;40.472;-3.878;2022-09-02T05:06:57;52915.97;;;-139.96;33.78
7906;BME280;13291;40.472;-3.878;2022-09-02T05:09:26;52931.97;;;-139.96;33.96
7906;BME280;13291;40.472;-3.878;2022-09-02T05:11:53;52873.97;;;-139.96;33.87
7906;BME280;13291;40.472;-3.878;2022-09-02T05:14:22;52955.97;;;-139.96;34.33
7906;BME280;13291;40.472;-3.878;2022-09-02T05:16:50;52925.97;;;-139.96;34.94
7906;BME280;13291;40.472;-3.878;2022-09-02T05:19:19;52917.97;;;-139.96;34.79
7906;BME280;13291;40.472;-3.878;2022-09-02T05:21:48;52933.97;;;-139.96;35.27
7906;BME280;13291;40.472;-3.878;2022-09-02T05:24:17;52917.97;;;-139.96;35.60
7906;BME280;13291;40.472;-3.878;2022-09-02T05:26:44;52897.97;;;-139.96;35.65
7906;BME280;13291;40.472;-3.878;2022-09-02T05:29:11;52917.97;;;-139.96;35.98
7906;BME280;13291;40.472;-3.878;2022-09-02T05:31:39;52957.97;;;-139.96;36.20
7906;BME280;13291;40.472;-3.878;2022-09-02T05:34:06;52949.97;;;-139.96;36.56
7906;BME280;13291;40.472;-3.878;2022-09-02T05:36:34;52939.97;;;-139.96;36.58
7906;BME280;13291;40.472;-3.878;2022-09-02T05:39:01;52941.97;;;-139.96;36.73
7906;BME280;13291;40.472;-3.878;2022-09-02T05:41:30;52935.97;;;-139.96;36.84
7906;BME280;13291;40.472;-3.878;2022-09-02T05:44:00;52927.97;;;-139.96;37.17
7906;BME280;13291;40.472;-3.878;2022-09-02T05:46:28;52943.97;;;-139.96;37.23
7906;BME280;13291;40.472;-3.878;2022-09-02T05:48:55;52931.97;;;-139.96;36.80
7906;BME280;13291;40.472;-3.878;2022-09-02T05:51:36;52931.97;;;-139.96;37.04
7906;BME280;13291;40.472;-3.878;2022-09-02T05:54:06;52983.97;;;-139.96;36.98
7906;BME280;13291;40.472;-3.878;2022-09-02T05:56:37;52931.97;;;-139.96;37.10
7906;BME280;13291;40.472;-3.878;2022-09-02T05:59:03;52935.97;;;-139.96;37.33
7906;BME280;13291;40.472;-3.878;2022-09-02T06:01:32;52939.97;;;-139.96;37.68
7906;BME280;13291;40.472;-3.878;2022-09-02T06:03:59;52979.97;;;-139.96;37.27
7906;BME280;13291;40.472;-3.878;2022-09-02T06:06:27;52971.97;;;-139.96;37.61
7906;BME280;13291;40.472;-3.878;2022-09-02T06:08:54;52905.97;;;-139.96;37.34
7906;BME280;13291;40.472;-3.878;2022-09-02T06:11:21;52913.97;;;-139.96;37.42
7906;BME280;13291;40.472;-3.878;2022-09-02T06:13:49;52933.97;;;-139.96;37.93
7906;BME280;13291;40.472;-3.878;2022-09-02T06:16:21;52955.97;;;-139.96;37.93
7906;BME280;13291;40.472;-3.878;2022-09-02T06:18:49;52903.97;;;-139.96;37.50
7906;BME280;13291;40.472;-3.878;2022-09-02T06:21:16;52929.97;;;-139.96;37.06
7906;BME280;13291;40.472;-3.878;2022-09-02T06:23:45;52901.97;;;-139.96;37.64
7906;BME280;13291;40.472;-3.878;2022-09-02T06:26:14;52955.97;;;-139.96;37.57
7906;BME280;13291;40.472;-3.878;2022-09-02T06:28:41;52895.97;;;-139.96;37.33
7906;BME280;13291;40.472;-3.878;2022-09-02T06:31:12;52921.97;;;-139.96;37.28
7906;BME280;13291;40.472;-3.878;2022-09-02T06:33:39;52935.97;;;-139.96;37.12
7906;BME280;13291;40.472;-3.878;2022-09-02T06:36:07;52905.97;;;-139.96;37.29
7906;BME280;13291;40.472;-3.878;2022-09-02T06:38:36;52955.97;;;-139.96;37.34
7906;BME280;13291;40.472;-3.878;2022-09-02T06:41:04;52965.97;;;-139.96;36.94
7906;BME280;13291;40.472;-3.878;2022-09-02T06:43:31;52921.97;;;-139.96;36.98
7906;BME280;13291;40.472;-3.878;2022-09-02T06:45:58;52941.97;;;-139.96;36.86
7906;BME280;13291;40.472;-3.878;2022-09-02T06:48:27;52953.97;;;-139.96;37.59
7906;BME280;13291;40.472;-3.878;2022-09-02T06:50:55;52927.97;;;-139.96;37.44
7906;BME280;13291;40.472;-3.878;2022-09-02T06:53:22;52941.97;;;-139.96;37.23
7906;BME280;13291;40.472;-3.878;2022-09-02T06:55:50;52957.97;;;-139.96;37.03
7906;BME280;13291;40.472;-3.878;2022-09-02T06:58:17;52945.97;;;-139.96;37.69
7906;BME280;13291;40.472;-3.878;2022-09-02T07:00:44;52951.97;;;-139.96;37.10
7906;BME280;13291;40.472;-3.878;2022-09-02T07:03:11;52947.97;;;-139.96;37.42
7906;BME280;13291;40.472;-3.878;2022-09-02T07:06:01;52909.97;;;-139.96;37.40
7906;BME280;13291;40.472;-3.878;2022-09-02T07:08:29;52927.97;;;-139.96;37.22
7906;BME280;13291;40.472;-3.878;2022-09-02T07:10:56;52943.97;;;-139.96;37.41
7906;BME280;13291;40.472;-3.878;2022-09-02T07:13:23;52953.97;;;-139.96;37.73
7906;BME280;13291;40.472;-3.878;2022-09-02T07:15:50;52917.97;;;-139.96;37.48
7906;BME280;13291;40.472;-3.878;2022-09-02T07:18:17;52951.97;;;-139.96;37.76
7906;BME280;13291;40.472;-3.878;2022-09-02T07:20:45;52925.97;;;-139.96;37.63
7906;BME280;13291;40.472;-3.878;2022-09-02T07:23:14;52937.97;;;-139.96;37.60
7906;BME280;13291;40.472;-3.878;2022-09-02T07:25:42;52957.97;;;-139.96;37.79
7906;BME280;13291;40.472;-3.878;2022-09-02T07:28:09;52945.97;;;-139.96;38.03
7906;BME280;13291;40.472;-3.878;2022-09-02T07:30:39;52941.97;;;-139.96;37.81
7906;BME280;13291;40.472;-3.878;2022-09-02T07:33:07;52937.97;;;-139.96;37.71
7906;BME280;13291;40.472;-3.878;2022-09-02T07:35:34;52945.97;;;-139.96;38.14
7906;BME280;13291;40.472;-3.878;2022-09-02T07:38:01;52915.97;;;-139.96;37.40
7906;BME280;13291;40.472;-3.878;2022-09-02T07:40:30;52929.97;;;-139.96;37.11
7906;BME280;13291;40.472;-3.878;2022-09-02T07:42:57;52919.97;;;-139.96;37.08
7906;BME280;13291;40.472;-3.878;2022-09-02T07:45:24;52901.97;;;-139.96;36.86
7906;BME280;13291;40.472;-3.878;2022-09-02T07:47:51;52929.97;;;-139.96;37.40
7906;BME280;13291;40.472;-3.878;2022-09-02T07:50:19;52937.97;;;-139.96;37.28
7906;BME280;13291;40.472;-3.878;2022-09-02T07:52:46;52947.97;;;-139.96;37.30
7906;BME280;13291;40.472;-3.878;2022-09-02T07:55:15;52949.97;;;-139.96;37.18
7906;BME280;13291;40.472;-3.878;2022-09-02T07:57:43;52943.97;;;-139.96;36.88
7906;BME280;13291;40.472;-3.878;2022-09-02T08:00:11;52923.97;;;-139.96;36.73
7906;BME280;13291;40.472;-3.878;2022-09-02T08:02:39;52889.97;;;-139.96;36.90
7906;BME280;13291;40.472;-3.878;2022-09-02T08:05:07;52929.97;;;-139.96;36.83
7906;BME280;13291;40.472;-3.878;2022-09-02T08:07:34;52893.97;;;-139.96;36.46
7906;BME280;13291;40.472;-3.878;2022-09-02T08:10:01;52899.97;;;-139.96;36.74
7906;BME280;13291;40.472;-3.878;2022-09-02T08:12:28;52901.97;;;-139.96;36.80
7906;BME280;13291;40.472;-3.878;2022-09-02T08:14:56;52905.97;;;-139.96;36.65
7906;BME280;13291;40.472;-3.878;2022-09-02T08:17:23;52897.97;;;-139.96;36.92
7906;BME280;13291;40.472;-3.878;2022-09-02T08:19:50;52921.97;;;-139.96;37.22
7906;BME280;13291;40.472;-3.878;2022-09-02T08:22:17;52933.97;;;-139.96;37.23
7906;BME280;13291;40.472;-3.878;2022-09-02T08:24:44;52935.97;;;-139.96;37.01
7906;BME280;13291;40.472;-3.878;2022-09-02T08:27:11;52923.97;;;-139.96;37.16
7906;BME280;13291;40.472;-3.878;2022-09-02T08:29:38;52919.97;;;-139.96;37.27
7906;BME280;13291;40.472;-3.878;2022-09-02T08:32:06;52907.97;;;-139.96;37.08
7906;BME280;13291;40.472;-3.878;2022-09-02T08:34:33;52919.97;;;-139.96;37.19
7906;BME280;13291;40.472;-3.878;2022-09-02T08:37:00;52905.97;;;-139.96;37.63
7906;BME280;13291;40.472;-3.878;2022-09-02T08:39:27;52903.97;;;-139.96;37.11
7906;BME280;13291;40.472;-3.878;2022-09-02T08:42:02;52909.97;;;-139.96;37.41
7906;BME280;13291;40.472;-3.878;2022-09-02T08:44:33;52925.97;;;-139.96;37.18
7906;BME280;13291;40.472;-3.878;2022-09-02T08:47:04;52889.97;;;-139.96;37.30
7906;BME280;13291;40.472;-3.878;2022-09-02T08:49:38;52879.97;;;-139.96;36.79
7906;BME280;13291;40.472;-3.878;2022-09-02T08:52:06;52903.97;;;-139.96;36.54
7906;BME280;13291;40.472;-3.878;2022-09-02T08:54:38;52889.97;;;-139.96;36.51
7906;BME280;13291;40.472;-3.878;2022-09-02T08:57:08;52905.97;;;-139.96;36.73
7906;BME280;13291;40.472;-3.878;2022-09-02T08:59:36;52941.97;;;-139.96;36.68
7906;BME280;13291;40.472;-3.878;2022-09-02T09:02:08;52913.97;;;-139.96;36.86
7906;BME280;13291;40.472;-3.878;2022-09-02T09:04:56;52915.97;;;-139.96;36.83
7906;BME280;13291;40.472;-3.878;2022-09-02T09:07:34;52889.97;;;-139.96;36.92
7906;BME280;13291;40.472;-3.878;2022-09-02T09:10:09;52893.97;;;-139.96;36.60
7906;BME280;13291;40.472;-3.878;2022-09-02T09:13:00;52909.97;;;-139.96;36.27
7906;BME280;13291;40.472;-3.878;2022-09-02T09:15:38;52897.97;;;-139.96;36.55
7906;BME280;13291;40.472;-3.878;2022-09-02T09:18:10;52913.97;;;-139.96;36.42
7906;BME280;13291;40.472;-3.878;2022-09-02T09:20:42;52879.97;;;-139.96;35.91
7906;BME280;13291;40.472;-3.878;2022-09-02T09:23:22;52897.97;;;-139.96;36.13
7906;BME280;13291;40.472;-3.878;2022-09-02T09:25:55;52909.97;;;-139.96;36.15
7906;BME280;13291;40.472;-3.878;2022-09-02T09:28:22;52895.97;;;-139.96;36.15
7906;BME280;13291;40.472;-3.878;2022-09-02T09:30:49;52913.97;;;-139.96;36.17
7906;BME280;13291;40.472;-3.878;2022-09-02T09:33:20;52857.97;;;-139.96;36.03
7906;BME280;13291;40.472;-3.878;2022-09-02T09:35:51;52869.97;;;-139.96;35.80
7906;BME280;13291;40.472;-3.878;2022-09-02T09:38:28;52883.97;;;-139.96;35.33
7906;BME280;13291;40.472;-3.878;2022-09-02T09:41:13;52915.97;;;-139.96;35.77
7906;BME280;13291;40.472;-3.878;2022-09-02T09:43:41;52909.97;;;-139.96;35.46
7906;BME280;13291;40.472;-3.878;2022-09-02T09:46:26;52869.97;;;-139.96;35.41
7906;BME280;13291;40.472;-3.878;2022-09-02T09:48:54;52911.97;;;-139.96;34.26
7906;BME280;13291;40.472;-3.878;2022-09-02T09:51:23;52885.97;;;-139.96;33.38
7906;BME280;13291;40.472;-3.878;2022-09-02T09:53:50;52867.97;;;-139.96;33.20
7906;BME280;13291;40.472;-3.878;2022-09-02T09:56:27;52901.97;;;-139.96;32.58
7906;BME280;13291;40.472;-3.878;2022-09-02T09:58:56;52889.97;;;-139.96;33.30
7906;BME280;13291;40.472;-3.878;2022-09-02T10:01:26;52873.97;;;-139.96;32.72
7906;BME280;13291;40.472;-3.878;2022-09-02T10:03:55;52881.97;;;-139.96;32.73
7906;BME280;13291;40.472;-3.878;2022-09-02T10:06:35;52885.97;;;-139.96;32.18
7906;BME280;13291;40.472;-3.878;2022-09-02T10:09:04;52909.97;;;-139.96;32.09
7906;BME280;13291;40.472;-3.878;2022-09-02T10:11:33;52869.97;;;-139.96;32.53
7906;BME280;13291;40.472;-3.878;2022-09-02T10:14:02;52871.97;;;-139.96;32.64
7906;BME280;13291;40.472;-3.878;2022-09-02T10:16:51;52867.97;;;-139.96;32.39
7906;BME280;13291;40.472;-3.878;2022-09-02T10:19:27;52875.97;;;-139.96;31.96
7906;BME280;13291;40.472;-3.878;2022-09-02T10:25:03;52877.97;;;-139.96;32.07
7906;BME280;13291;40.472;-3.878;2022-09-02T10:27:38;52837.97;;;-139.96;31.91
7906;BME280;13291;40.472;-3.878;2022-09-02T10:30:10;52879.97;;;-139.96;31.82
7906;BME280;13291;40.472;-3.878;2022-09-02T10:32:48;52885.97;;;-139.96;31.91
7906;BME280;13291;40.472;-3.878;2022-09-02T10:35:22;52849.97;;;-139.96;31.61
7906;BME280;13291;40.472;-3.878;2022-09-02T10:38:04;52855.97;;;-139.96;31.08
7906;BME280;13291;40.472;-3.878;2022-09-02T10:40:35;52893.97;;;-139.96;30.93
7906;BME280;13291;40.472;-3.878;2022-09-02T10:43:07;52857.97;;;-139.96;30.99
7906;BME280;13291;40.472;-3.878;2022-09-02T10:45:37;52875.97;;;-139.96;31.23
7906;BME280;13291;40.472;-3.878;2022-09-02T10:48:23;52877.97;;;-139.96;31.69
7906;BME280;13291;40.472;-3.878;2022-09-02T10:50:55;52865.97;;;-139.96;31.46
7906;BME280;13291;40.472;-3.878;2022-09-02T10:53:42;52913.97;;;-139.96;30.84
7906;BME280;13291;40.472;-3.878;2022-09-02T10:56:16;52853.97;;;-139.96;30.95
7906;BME280;13291;40.472;-3.878;2022-09-02T10:58:49;52855.97;;;-139.96;30.62
7906;BME280;13291;40.472;-3.878;2022-09-02T11:01:23;52875.97;;;-139.96;30.49
7906;BME280;13291;40.472;-3.878;2022-09-02T11:04:03;52867.97;;;-139.96;30.69
7906;BME280;13291;40.472;-3.878;2022-09-02T11:06:34;52845.97;;;-139.96;30.78
7906;BME280;13291;40.472;-3.878;2022-09-02T11:09:10;52829.94;;;-139.96;30.67
7906;BME280;13291;40.472;-3.878;2022-09-02T11:11:40;52851.97;;;-139.96;31.04
7906;BME280;13291;40.472;-3.878;2022-09-02T11:14:16;52891.97;;;-139.96;30.06
7906;BME280;13291;40.472;-3.878;2022-09-02T11:16:47;52853.97;;;-139.96;29.86
7906;BME280;13291;40.472;-3.878;2022-09-02T11:19:21;52857.97;;;-139.96;30.92
7906;BME280;13291;40.472;-3.878;2022-09-02T11:21:55;52803.94;;;-139.96;30.02
7906;BME280;13291;40.472;-3.878;2022-09-02T11:24:31;52831.97;;;-139.96;29.20
7906;BME280;13291;40.472;-3.878;2022-09-02T11:27:04;52843.97;;;-139.96;29.08
7906;BME280;13291;40.472;-3.878;2022-09-02T11:29:39;52855.97;;;-139.96;29.24
7906;BME280;13291;40.472;-3.878;2022-09-02T11:32:13;52829.94;;;-139.96;28.71
7906;BME280;13291;40.472;-3.878;2022-09-02T11:34:44;52813.94;;;-139.96;28.99
7906;BME280;13291;40.472;-3.878;2022-09-02T11:37:22;52843.97;;;-139.96;29.00
7906;BME280;13291;40.472;-3.878;2022-09-02T11:39:56;52861.97;;;-139.96;29.14
7906;BME280;13291;40.472;-3.878;2022-09-02T11:42:35;52823.94;;;-139.96;29.36
7906;BME280;13291;40.472;-3.878;2022-09-02T11:45:20;52865.97;;;-139.96;29.90
7906;BME280;13291;40.472;-3.878;2022-09-02T11:48:00;52817.94;;;-139.96;30.39
7906;BME280;13291;40.472;-3.878;2022-09-02T11:50:49;52821.94;;;-139.96;29.93
7906;BME280;13291;40.472;-3.878;2022-09-02T11:53:21;52831.97;;;-139.96;28.26
7906;BME280;13291;40.472;-3.878;2022-09-02T11:55:53;52825.94;;;-139.96;27.32
7906;BME280;13291;40.472;-3.878;2022-09-02T11:58:33;52817.94;;;-139.96;27.73
7906;BME280;13291;40.472;-3.878;2022-09-02T12:01:15;52831.97;;;-139.96;27.68
7906;BME280;13291;40.472;-3.878;2022-09-02T12:03:47;52831.97;;;-139.96;28.18
7906;BME280;13291;40.472;-3.878;2022-09-02T12:06:17;52819.94;;;-139.96;27.88
7906;BME280;13291;40.472;-3.878;2022-09-02T12:09:08;52835.97;;;-139.96;27.87
7906;BME280;13291;40.472;-3.878;2022-09-02T12:11:50;52827.94;;;-139.96;28.03
7906;BME280;13291;40.472;-3.878;2022-09-02T12:21:06;52789.94;;;-139.96;27.27
7906;BME280;13291;40.472;-3.878;2022-09-02T12:24:06;52831.97;;;-139.96;27.65
7906;BME280;13291;40.472;-3.878;2022-09-02T12:27:19;52809.94;;;-139.96;27.40
7906;BME280;13291;40.472;-3.878;2022-09-02T12:29:47;52827.94;;;-139.96;27.44
7906;BME280;13291;40.472;-3.878;2022-09-02T12:35:53;52837.97;;;-139.96;26.86
7906;BME280;13291;40.472;-3.878;2022-09-02T12:38:42;52829.94;;;-139.96;26.96
7906;BME280;13291;40.472;-3.878;2022-09-02T12:41:33;52819.94;;;-139.96;27.01
7906;BME280;13291;40.472;-3.878;2022-09-02T12:44:20;52801.94;;;-139.96;27.07
7906;BME280;13291;40.472;-3.878;2022-09-02T12:47:00;52813.94;;;-139.96;26.44
7906;BME280;13291;40.472;-3.878;2022-09-02T12:49:46;52801.94;;;-139.96;26.28
7906;BME280;13291;40.472;-3.878;2022-09-02T12:52:42;52787.94;;;-139.96;26.21
7906;BME280;13291;40.472;-3.878;2022-09-02T12:55:17;52779.94;;;-139.96;26.73
7906;BME280;13291;40.472;-3.878;2022-09-02T12:57:46;52819.94;;;-139.96;26.16
7906;BME280;13291;40.472;-3.878;2022-09-02T13:00:25;52801.94;;;-139.96;25.72
7906;BME280;13291;40.472;-3.878;2022-09-02T13:03:07;52763.94;;;-139.96;25.77
7906;BME280;13291;40.472;-3.878;2022-09-02T13:05:49;52759.94;;;-139.96;25.85
7906;BME280;13291;40.472;-3.878;2022-09-02T13:08:38;52777.94;;;-139.96;25.65
7906;BME280;13291;40.472;-3.878;2022-09-02T13:14:44;52725.94;;;-139.96;25.28